sensor_id;sensor_type;location;lat;lon;timestamp;temperature;humidity
40758;DHT22;26462;47.384;19.218;2022-08-19T00:01:42;27.10;66.50
40758;DHT22;26462;47.384;19.218;2022-08-19T00:04:11;27.10;66.80
40758;DHT22;26462;47.384;19.218;2022-08-19T00:06:41;27.00;66.20
40758;DHT22;26462;47.384;19.218;2022-08-19T00:09:12;27.00;66.30
40758;DHT22;26462;47.384;19.218;2022-08-19T00:11:39;27.00;66.40
40758;DHT22;26462;47.384;19.218;2022-08-19T00:14:09;26.90;66.70
40758;DHT22;26462;47.384;19.218;2022-08-19T00:16:39;26.90;66.70
40758;DHT22;26462;47.384;19.218;2022-08-19T00:19:07;26.80;67.40
40758;DHT22;26462;47.384;19.218;2022-08-19T00:21:34;26.80;67.50
40758;DHT22;26462;47.384;19.218;2022-08-19T00:24:08;26.80;67.00
40758;DHT22;26462;47.384;19.218;2022-08-19T00:26:36;26.70;67.30
40758;DHT22;26462;47.384;19.218;2022-08-19T00:29:04;26.70;67.40
40758;DHT22;26462;47.384;19.218;2022-08-19T00:31:32;26.70;67.50
40758;DHT22;26462;47.384;19.218;2022-08-19T00:33:59;26.70;67.70
40758;DHT22;26462;47.384;19.218;2022-08-19T00:36:27;26.60;68.40
40758;DHT22;26462;47.384;19.218;2022-08-19T00:38:55;26.60;68.40
40758;DHT22;26462;47.384;19.218;2022-08-19T00:41:24;26.50;68.50
40758;DHT22;26462;47.384;19.218;2022-08-19T00:44:06;26.50;68.40
40758;DHT22;26462;47.384;19.218;2022-08-19T00:46:35;26.50;68.60
40758;DHT22;26462;47.384;19.218;2022-08-19T00:49:09;26.40;68.50
40758;DHT22;26462;47.384;19.218;2022-08-19T00:51:36;26.40;68.80
40758;DHT22;26462;47.384;19.218;2022-08-19T00:54:04;26.40;70.00
40758;DHT22;26462;47.384;19.218;2022-08-19T00:56:31;26.40;69.00
40758;DHT22;26462;47.384;19.218;2022-08-19T00:58:59;26.40;69.30
40758;DHT22;26462;47.384;19.218;2022-08-19T01:01:28;26.30;69.50
40758;DHT22;26462;47.384;19.218;2022-08-19T01:03:55;26.30;68.90
40758;DHT22;26462;47.384;19.218;2022-08-19T01:06:26;26.30;69.10
40758;DHT22;26462;47.384;19.218;2022-08-19T01:08:56;26.20;68.90
40758;DHT22;26462;47.384;19.218;2022-08-19T01:11:23;26.20;69.10
40758;DHT22;26462;47.384;19.218;2022-08-19T01:13:52;26.20;69.90
40758;DHT22;26462;47.384;19.218;2022-08-19T01:16:22;26.20;69.60
40758;DHT22;26462;47.384;19.218;2022-08-19T01:18:50;26.10;69.20
40758;DHT22;26462;47.384;19.218;2022-08-19T01:21:34;26.10;69.40
40758;DHT22;26462;47.384;19.218;2022-08-19T01:24:05;26.10;69.90
40758;DHT22;26462;47.384;19.218;2022-08-19T01:26:38;26.00;69.50
40758;DHT22;26462;47.384;19.218;2022-08-19T01:29:08;26.00;69.60
40758;DHT22;26462;47.384;19.218;2022-08-19T01:31:35;26.00;69.60
40758;DHT22;26462;47.384;19.218;2022-08-19T01:34:04;26.00;69.70
40758;DHT22;26462;47.384;19.218;2022-08-19T01:36:35;26.00;69.70
40758;DHT22;26462;47.384;19.218;2022-08-19T01:39:06;25.90;69.60
40758;DHT22;26462;47.384;19.218;2022-08-19T01:41:34;25.90;69.80
40758;DHT22;26462;47.384;19.218;2022-08-19T01:44:01;25.90;69.70
40758;DHT22;26462;47.384;19.218;2022-08-19T01:46:47;25.80;69.80
40758;DHT22;26462;47.384;19.218;2022-08-19T01:49:17;25.80;69.90
40758;DHT22;26462;47.384;19.218;2022-08-19T01:51:45;25.80;70.40
40758;DHT22;26462;47.384;19.218;2022-08-19T01:54:15;25.80;70.40
40758;DHT22;26462;47.384;19.218;2022-08-19T01:56:57;25.80;70.20
40758;DHT22;26462;47.384;19.218;2022-08-19T01:59:28;25.70;70.20
40758;DHT22;26462;47.384;19.218;2022-08-19T02:01:55;25.80;71.00
40758;DHT22;26462;47.384;19.218;2022-08-19T02:04:22;25.70;70.20
40758;DHT22;26462;47.384;19.218;2022-08-19T02:06:50;25.70;70.40
40758;DHT22;26462;47.384;19.218;2022-08-19T02:09:17;25.70;70.60
40758;DHT22;26462;47.384;19.218;2022-08-19T02:11:44;25.60;70.60
40758;DHT22;26462;47.384;19.218;2022-08-19T02:14:11;25.60;70.80
40758;DHT22;26462;47.384;19.218;2022-08-19T02:16:38;25.60;70.70
40758;DHT22;26462;47.384;19.218;2022-08-19T02:19:07;25.60;70.80
40758;DHT22;26462;47.384;19.218;2022-08-19T02:21:35;25.50;71.10
40758;DHT22;26462;47.384;19.218;2022-08-19T02:24:04;25.50;71.30
40758;DHT22;26462;47.384;19.218;2022-08-19T02:26:32;25.40;71.50
40758;DHT22;26462;47.384;19.218;2022-08-19T02:28:59;25.40;71.60
40758;DHT22;26462;47.384;19.218;2022-08-19T02:31:27;25.40;71.60
40758;DHT22;26462;47.384;19.218;2022-08-19T02:33:57;25.20;72.20
40758;DHT22;26462;47.384;19.218;2022-08-19T02:36:25;25.20;72.20
40758;DHT22;26462;47.384;19.218;2022-08-19T02:38:53;25.20;72.20
40758;DHT22;26462;47.384;19.218;2022-08-19T02:41:24;25.30;72.40
40758;DHT22;26462;47.384;19.218;2022-08-19T02:43:54;25.20;72.60
40758;DHT22;26462;47.384;19.218;2022-08-19T02:46:42;25.30;72.70
40758;DHT22;26462;47.384;19.218;2022-08-19T02:49:11;25.20;72.80
40758;DHT22;26462;47.384;19.218;2022-08-19T02:51:40;25.20;72.70
40758;DHT22;26462;47.384;19.218;2022-08-19T02:54:10;25.20;73.10
40758;DHT22;26462;47.384;19.218;2022-08-19T02:56:39;25.20;72.80
40758;DHT22;26462;47.384;19.218;2022-08-19T02:59:07;25.10;73.20
40758;DHT22;26462;47.384;19.218;2022-08-19T03:01:39;25.20;73.20
40758;DHT22;26462;47.384;19.218;2022-08-19T03:04:12;25.10;73.80
40758;DHT22;26462;47.384;19.218;2022-08-19T03:06:41;25.10;73.60
40758;DHT22;26462;47.384;19.218;2022-08-19T03:09:09;25.10;73.30
40758;DHT22;26462;47.384;19.218;2022-08-19T03:11:36;25.20;73.90
40758;DHT22;26462;47.384;19.218;2022-08-19T03:14:05;25.10;73.30
40758;DHT22;26462;47.384;19.218;2022-08-19T03:16:36;25.10;74.30
40758;DHT22;26462;47.384;19.218;2022-08-19T03:19:07;25.10;74.10
40758;DHT22;26462;47.384;19.218;2022-08-19T03:21:34;25.10;74.80
40758;DHT22;26462;47.384;19.218;2022-08-19T03:24:05;25.00;73.80
40758;DHT22;26462;47.384;19.218;2022-08-19T03:26:39;25.00;74.20
40758;DHT22;26462;47.384;19.218;2022-08-19T03:29:06;25.00;74.00
40758;DHT22;26462;47.384;19.218;2022-08-19T03:31:38;25.00;74.10
40758;DHT22;26462;47.384;19.218;2022-08-19T03:34:23;24.90;74.10
40758;DHT22;26462;47.384;19.218;2022-08-19T03:36:58;24.90;74.20
40758;DHT22;26462;47.384;19.218;2022-08-19T03:39:26;24.90;74.10
40758;DHT22;26462;47.384;19.218;2022-08-19T03:41:54;24.90;74.10
40758;DHT22;26462;47.384;19.218;2022-08-19T03:44:46;24.90;74.00
40758;DHT22;26462;47.384;19.218;2022-08-19T03:47:14;24.90;73.90
40758;DHT22;26462;47.384;19.218;2022-08-19T03:49:42;24.90;74.10
40758;DHT22;26462;47.384;19.218;2022-08-19T03:52:09;24.80;74.40
40758;DHT22;26462;47.384;19.218;2022-08-19T03:54:36;24.70;74.50
40758;DHT22;26462;47.384;19.218;2022-08-19T03:57:05;24.80;74.30
40758;DHT22;26462;47.384;19.218;2022-08-19T03:59:34;24.80;74.30
40758;DHT22;26462;47.384;19.218;2022-08-19T04:02:06;24.80;74.30
40758;DHT22;26462;47.384;19.218;2022-08-19T04:04:37;24.80;74.40
40758;DHT22;26462;47.384;19.218;2022-08-19T04:07:05;24.70;74.70
40758;DHT22;26462;47.384;19.218;2022-08-19T04:09:34;24.70;74.70
40758;DHT22;26462;47.384;19.218;2022-08-19T04:12:04;24.80;74.60
40758;DHT22;26462;47.384;19.218;2022-08-19T04:14:32;24.80;74.70
40758;DHT22;26462;47.384;19.218;2022-08-19T04:17:01;24.80;74.70
40758;DHT22;26462;47.384;19.218;2022-08-19T04:19:34;24.90;74.40
40758;DHT22;26462;47.384;19.218;2022-08-19T04:22:01;24.90;74.30
40758;DHT22;26462;47.384;19.218;2022-08-19T04:24:29;24.90;74.40
40758;DHT22;26462;47.384;19.218;2022-08-19T04:26:56;24.90;74.40
40758;DHT22;26462;47.384;19.218;2022-08-19T04:29:25;24.90;74.20
40758;DHT22;26462;47.384;19.218;2022-08-19T04:31:55;24.90;74.30
40758;DHT22;26462;47.384;19.218;2022-08-19T04:34:24;24.90;74.50
40758;DHT22;26462;47.384;19.218;2022-08-19T04:36:54;24.90;74.60
40758;DHT22;26462;47.384;19.218;2022-08-19T04:39:25;24.90;74.90
40758;DHT22;26462;47.384;19.218;2022-08-19T04:42:14;24.90;74.80
40758;DHT22;26462;47.384;19.218;2022-08-19T04:45:00;24.80;74.70
40758;DHT22;26462;47.384;19.218;2022-08-19T04:47:27;24.90;74.90
40758;DHT22;26462;47.384;19.218;2022-08-19T04:50:14;24.90;75.10
40758;DHT22;26462;47.384;19.218;2022-08-19T04:52:44;25.00;74.60
40758;DHT22;26462;47.384;19.218;2022-08-19T04:55:11;25.00;74.40
40758;DHT22;26462;47.384;19.218;2022-08-19T04:57:39;25.10;74.40
40758;DHT22;26462;47.384;19.218;2022-08-19T05:00:10;24.90;74.30
40758;DHT22;26462;47.384;19.218;2022-08-19T05:02:38;24.80;74.90
40758;DHT22;26462;47.384;19.218;2022-08-19T05:05:06;24.90;74.80
40758;DHT22;26462;47.384;19.218;2022-08-19T05:07:33;25.10;74.20
40758;DHT22;26462;47.384;19.218;2022-08-19T05:10:01;25.10;74.10
40758;DHT22;26462;47.384;19.218;2022-08-19T05:12:28;25.10;73.90
40758;DHT22;26462;47.384;19.218;2022-08-19T05:14:57;25.00;74.00
40758;DHT22;26462;47.384;19.218;2022-08-19T05:17:25;25.10;74.10
40758;DHT22;26462;47.384;19.218;2022-08-19T05:19:56;25.10;74.00
40758;DHT22;26462;47.384;19.218;2022-08-19T05:22:45;25.10;73.90
40758;DHT22;26462;47.384;19.218;2022-08-19T05:25:17;25.20;73.90
40758;DHT22;26462;47.384;19.218;2022-08-19T05:27:46;25.30;73.70
40758;DHT22;26462;47.384;19.218;2022-08-19T05:30:15;25.40;73.40
40758;DHT22;26462;47.384;19.218;2022-08-19T05:32:42;25.50;73.50
40758;DHT22;26462;47.384;19.218;2022-08-19T05:35:09;25.60;73.00
40758;DHT22;26462;47.384;19.218;2022-08-19T05:37:39;25.60;72.90
40758;DHT22;26462;47.384;19.218;2022-08-19T05:40:10;25.50;72.70
40758;DHT22;26462;47.384;19.218;2022-08-19T05:42:37;25.50;72.90
40758;DHT22;26462;47.384;19.218;2022-08-19T05:45:05;25.70;73.20
40758;DHT22;26462;47.384;19.218;2022-08-19T05:47:32;25.80;72.40
40758;DHT22;26462;47.384;19.218;2022-08-19T05:49:59;25.70;72.50
40758;DHT22;26462;47.384;19.218;2022-08-19T05:52:31;25.80;72.40
40758;DHT22;26462;47.384;19.218;2022-08-19T05:54:59;25.80;72.40
40758;DHT22;26462;47.384;19.218;2022-08-19T05:57:27;26.00;72.30
40758;DHT22;26462;47.384;19.218;2022-08-19T05:59:56;26.20;71.70
40758;DHT22;26462;47.384;19.218;2022-08-19T06:02:28;26.30;71.60
40758;DHT22;26462;47.384;19.218;2022-08-19T06:04:58;26.40;71.20
40758;DHT22;26462;47.384;19.218;2022-08-19T06:07:26;26.50;71.20
40758;DHT22;26462;47.384;19.218;2022-08-19T06:09:53;26.60;70.80
40758;DHT22;26462;47.384;19.218;2022-08-19T06:12:31;26.70;70.40
40758;DHT22;26462;47.384;19.218;2022-08-19T06:15:01;26.70;69.10
40758;DHT22;26462;47.384;19.218;2022-08-19T06:17:29;26.80;69.00
40758;DHT22;26462;47.384;19.218;2022-08-19T06:19:58;26.90;68.40
40758;DHT22;26462;47.384;19.218;2022-08-19T06:22:25;27.10;68.10
40758;DHT22;26462;47.384;19.218;2022-08-19T06:24:54;27.20;67.40
40758;DHT22;26462;47.384;19.218;2022-08-19T06:27:21;27.20;67.10
40758;DHT22;26462;47.384;19.218;2022-08-19T06:29:49;27.40;67.20
40758;DHT22;26462;47.384;19.218;2022-08-19T06:32:17;27.40;66.80
40758;DHT22;26462;47.384;19.218;2022-08-19T06:34:46;27.50;66.50
40758;DHT22;26462;47.384;19.218;2022-08-19T06:37:14;27.50;66.00
40758;DHT22;26462;47.384;19.218;2022-08-19T06:39:42;27.50;66.10
40758;DHT22;26462;47.384;19.218;2022-08-19T06:42:11;27.70;66.00
40758;DHT22;26462;47.384;19.218;2022-08-19T06:44:42;27.90;65.70
40758;DHT22;26462;47.384;19.218;2022-08-19T06:47:20;27.90;65.30
40758;DHT22;26462;47.384;19.218;2022-08-19T06:49:56;28.00;64.70
40758;DHT22;26462;47.384;19.218;2022-08-19T06:52:34;28.10;64.60
40758;DHT22;26462;47.384;19.218;2022-08-19T06:55:03;28.20;64.30
40758;DHT22;26462;47.384;19.218;2022-08-19T06:57:32;28.30;64.30
40758;DHT22;26462;47.384;19.218;2022-08-19T07:00:00;28.40;63.80
40758;DHT22;26462;47.384;19.218;2022-08-19T07:02:27;28.50;63.40
40758;DHT22;26462;47.384;19.218;2022-08-19T07:04:56;28.60;64.50
40758;DHT22;26462;47.384;19.218;2022-08-19T07:07:25;28.80;63.60
40758;DHT22;26462;47.384;19.218;2022-08-19T07:09:52;29.00;62.80
40758;DHT22;26462;47.384;19.218;2022-08-19T07:12:31;29.00;62.80
40758;DHT22;26462;47.384;19.218;2022-08-19T07:15:05;29.10;62.60
40758;DHT22;26462;47.384;19.218;2022-08-19T07:17:32;29.30;62.70
40758;DHT22;26462;47.384;19.218;2022-08-19T07:20:02;29.30;61.90
40758;DHT22;26462;47.384;19.218;2022-08-19T07:22:35;29.40;61.60
40758;DHT22;26462;47.384;19.218;2022-08-19T07:25:03;29.50;61.50
40758;DHT22;26462;47.384;19.218;2022-08-19T07:27:30;29.70;61.50
40758;DHT22;26462;47.384;19.218;2022-08-19T07:29:59;29.80;60.50
40758;DHT22;26462;47.384;19.218;2022-08-19T07:32:27;29.90;61.30
40758;DHT22;26462;47.384;19.218;2022-08-19T07:34:55;30.00;61.00
40758;DHT22;26462;47.384;19.218;2022-08-19T07:37:24;30.10;60.70
40758;DHT22;26462;47.384;19.218;2022-08-19T07:39:59;30.20;59.70
40758;DHT22;26462;47.384;19.218;2022-08-19T07:42:27;30.20;59.30
40758;DHT22;26462;47.384;19.218;2022-08-19T07:44:57;30.20;59.10
40758;DHT22;26462;47.384;19.218;2022-08-19T07:47:25;30.30;59.30
40758;DHT22;26462;47.384;19.218;2022-08-19T07:50:15;30.50;58.70
40758;DHT22;26462;47.384;19.218;2022-08-19T07:52:42;30.60;58.50
40758;DHT22;26462;47.384;19.218;2022-08-19T07:55:15;30.60;58.20
40758;DHT22;26462;47.384;19.218;2022-08-19T07:58:02;30.50;58.20
40758;DHT22;26462;47.384;19.218;2022-08-19T08:00:32;30.70;58.20
40758;DHT22;26462;47.384;19.218;2022-08-19T08:02:59;30.80;58.20
40758;DHT22;26462;47.384;19.218;2022-08-19T08:05:26;30.90;57.50
40758;DHT22;26462;47.384;19.218;2022-08-19T08:08:12;30.90;57.70
40758;DHT22;26462;47.384;19.218;2022-08-19T08:10:59;31.00;57.60
40758;DHT22;26462;47.384;19.218;2022-08-19T08:13:27;31.20;57.10
40758;DHT22;26462;47.384;19.218;2022-08-19T08:15:56;31.30;56.80
40758;DHT22;26462;47.384;19.218;2022-08-19T08:18:24;31.40;56.00
40758;DHT22;26462;47.384;19.218;2022-08-19T08:20:55;31.40;56.90
40758;DHT22;26462;47.384;19.218;2022-08-19T08:23:23;31.40;55.60
40758;DHT22;26462;47.384;19.218;2022-08-19T08:25:55;31.50;56.50
40758;DHT22;26462;47.384;19.218;2022-08-19T08:28:24;31.50;55.80
40758;DHT22;26462;47.384;19.218;2022-08-19T08:30:56;31.50;55.90
40758;DHT22;26462;47.384;19.218;2022-08-19T08:33:26;31.70;56.00
40758;DHT22;26462;47.384;19.218;2022-08-19T08:36:01;31.70;56.00
40758;DHT22;26462;47.384;19.218;2022-08-19T08:38:31;31.80;55.90
40758;DHT22;26462;47.384;19.218;2022-08-19T08:43:49;31.80;55.30
40758;DHT22;26462;47.384;19.218;2022-08-19T08:46:34;31.80;55.90
40758;DHT22;26462;47.384;19.218;2022-08-19T08:52:05;32.00;54.90
40758;DHT22;26462;47.384;19.218;2022-08-19T08:54:38;31.90;55.50
40758;DHT22;26462;47.384;19.218;2022-08-19T08:57:28;31.90;55.40
40758;DHT22;26462;47.384;19.218;2022-08-19T09:00:11;32.10;55.20
40758;DHT22;26462;47.384;19.218;2022-08-19T09:02:42;32.10;54.90
40758;DHT22;26462;47.384;19.218;2022-08-19T09:05:10;32.20;54.30
40758;DHT22;26462;47.384;19.218;2022-08-19T09:10:34;32.40;53.70
40758;DHT22;26462;47.384;19.218;2022-08-19T09:13:56;32.30;53.60
40758;DHT22;26462;47.384;19.218;2022-08-19T09:16:29;32.40;53.30
40758;DHT22;26462;47.384;19.218;2022-08-19T09:19:01;32.40;53.00
40758;DHT22;26462;47.384;19.218;2022-08-19T09:21:28;32.50;54.00
40758;DHT22;26462;47.384;19.218;2022-08-19T09:24:02;32.50;53.20
40758;DHT22;26462;47.384;19.218;2022-08-19T09:26:30;32.60;53.00
40758;DHT22;26462;47.384;19.218;2022-08-19T09:29:14;32.60;53.00
40758;DHT22;26462;47.384;19.218;2022-08-19T09:31:43;32.70;52.50
40758;DHT22;26462;47.384;19.218;2022-08-19T09:34:10;32.70;52.20
40758;DHT22;26462;47.384;19.218;2022-08-19T09:36:49;32.70;52.50
40758;DHT22;26462;47.384;19.218;2022-08-19T09:39:21;32.90;52.30
40758;DHT22;26462;47.384;19.218;2022-08-19T09:41:48;33.00;52.20
40758;DHT22;26462;47.384;19.218;2022-08-19T09:44:17;32.90;51.40
40758;DHT22;26462;47.384;19.218;2022-08-19T09:46:47;33.00;52.00
40758;DHT22;26462;47.384;19.218;2022-08-19T09:49:20;32.90;52.00
40758;DHT22;26462;47.384;19.218;2022-08-19T09:51:51;33.00;51.30
40758;DHT22;26462;47.384;19.218;2022-08-19T09:54:21;33.10;51.00
40758;DHT22;26462;47.384;19.218;2022-08-19T09:56:54;33.20;51.70
40758;DHT22;26462;47.384;19.218;2022-08-19T09:59:22;33.20;50.90
40758;DHT22;26462;47.384;19.218;2022-08-19T10:01:49;33.20;50.90
40758;DHT22;26462;47.384;19.218;2022-08-19T10:04:16;33.30;50.80
40758;DHT22;26462;47.384;19.218;2022-08-19T10:06:49;33.20;50.60
40758;DHT22;26462;47.384;19.218;2022-08-19T10:09:19;33.20;49.80
40758;DHT22;26462;47.384;19.218;2022-08-19T10:12:00;33.30;50.40
40758;DHT22;26462;47.384;19.218;2022-08-19T10:14:28;33.40;51.10
40758;DHT22;26462;47.384;19.218;2022-08-19T10:16:55;33.40;51.10
40758;DHT22;26462;47.384;19.218;2022-08-19T10:19:25;33.50;50.20
40758;DHT22;26462;47.384;19.218;2022-08-19T10:21:53;33.60;50.50
40758;DHT22;26462;47.384;19.218;2022-08-19T10:24:26;33.70;50.00
40758;DHT22;26462;47.384;19.218;2022-08-19T10:26:55;33.70;49.30
40758;DHT22;26462;47.384;19.218;2022-08-19T10:29:26;33.70;50.10
40758;DHT22;26462;47.384;19.218;2022-08-19T10:32:00;33.70;49.50
40758;DHT22;26462;47.384;19.218;2022-08-19T10:34:29;33.80;50.60
40758;DHT22;26462;47.384;19.218;2022-08-19T10:36:58;33.80;49.20
40758;DHT22;26462;47.384;19.218;2022-08-19T10:39:29;33.80;49.30
40758;DHT22;26462;47.384;19.218;2022-08-19T10:41:58;33.80;49.70
40758;DHT22;26462;47.384;19.218;2022-08-19T10:44:25;33.90;49.50
40758;DHT22;26462;47.384;19.218;2022-08-19T10:46:59;33.90;49.80
40758;DHT22;26462;47.384;19.218;2022-08-19T10:49:26;34.00;48.60
40758;DHT22;26462;47.384;19.218;2022-08-19T10:51:54;34.00;48.70
40758;DHT22;26462;47.384;19.218;2022-08-19T10:54:47;34.10;48.20
40758;DHT22;26462;47.384;19.218;2022-08-19T10:57:43;34.00;48.80
40758;DHT22;26462;47.384;19.218;2022-08-19T11:00:28;34.20;49.00
40758;DHT22;26462;47.384;19.218;2022-08-19T11:02:55;34.10;47.60
40758;DHT22;26462;47.384;19.218;2022-08-19T11:05:22;34.20;48.30
40758;DHT22;26462;47.384;19.218;2022-08-19T11:07:51;34.20;48.90
40758;DHT22;26462;47.384;19.218;2022-08-19T11:10:19;34.30;47.80
40758;DHT22;26462;47.384;19.218;2022-08-19T11:12:48;34.30;48.00
40758;DHT22;26462;47.384;19.218;2022-08-19T11:15:17;34.30;47.30
40758;DHT22;26462;47.384;19.218;2022-08-19T11:17:44;34.30;47.90
40758;DHT22;26462;47.384;19.218;2022-08-19T11:20:13;34.30;47.90
40758;DHT22;26462;47.384;19.218;2022-08-19T11:22:41;34.30;47.80
40758;DHT22;26462;47.384;19.218;2022-08-19T11:25:10;34.40;48.10
40758;DHT22;26462;47.384;19.218;2022-08-19T11:27:39;34.30;48.10
40758;DHT22;26462;47.384;19.218;2022-08-19T11:30:10;34.30;47.40
40758;DHT22;26462;47.384;19.218;2022-08-19T11:32:40;34.40;48.40
40758;DHT22;26462;47.384;19.218;2022-08-19T11:35:12;34.50;48.20
40758;DHT22;26462;47.384;19.218;2022-08-19T11:37:40;34.50;47.30
40758;DHT22;26462;47.384;19.218;2022-08-19T11:40:08;34.60;48.40
40758;DHT22;26462;47.384;19.218;2022-08-19T11:42:35;34.60;47.60
40758;DHT22;26462;47.384;19.218;2022-08-19T11:45:22;34.50;47.70
40758;DHT22;26462;47.384;19.218;2022-08-19T11:47:50;34.70;47.50
40758;DHT22;26462;47.384;19.218;2022-08-19T11:50:17;34.80;46.90
40758;DHT22;26462;47.384;19.218;2022-08-19T11:52:45;34.80;47.10
40758;DHT22;26462;47.384;19.218;2022-08-19T11:55:13;34.80;47.30
40758;DHT22;26462;47.384;19.218;2022-08-19T11:57:41;34.80;47.60
40758;DHT22;26462;47.384;19.218;2022-08-19T12:00:10;34.80;48.00
40758;DHT22;26462;47.384;19.218;2022-08-19T12:02:39;34.80;48.00
40758;DHT22;26462;47.384;19.218;2022-08-19T12:05:08;34.90;47.10
40758;DHT22;26462;47.384;19.218;2022-08-19T12:07:39;34.80;47.80
40758;DHT22;26462;47.384;19.218;2022-08-19T12:10:07;34.90;47.40
40758;DHT22;26462;47.384;19.218;2022-08-19T12:12:36;34.90;46.30
40758;DHT22;26462;47.384;19.218;2022-08-19T12:15:07;35.00;46.50
40758;DHT22;26462;47.384;19.218;2022-08-19T12:17:35;35.10;47.00
40758;DHT22;26462;47.384;19.218;2022-08-19T12:20:04;35.20;46.20
40758;DHT22;26462;47.384;19.218;2022-08-19T12:22:31;35.10;45.60
40758;DHT22;26462;47.384;19.218;2022-08-19T12:24:58;35.10;46.50
40758;DHT22;26462;47.384;19.218;2022-08-19T12:27:25;35.10;46.50
40758;DHT22;26462;47.384;19.218;2022-08-19T12:30:07;35.10;47.10
40758;DHT22;26462;47.384;19.218;2022-08-19T12:32:35;35.20;46.90
40758;DHT22;26462;47.384;19.218;2022-08-19T12:35:03;35.10;46.70
40758;DHT22;26462;47.384;19.218;2022-08-19T12:37:30;35.10;47.20
40758;DHT22;26462;47.384;19.218;2022-08-19T12:39:59;35.00;46.50
40758;DHT22;26462;47.384;19.218;2022-08-19T12:42:27;35.00;46.50
40758;DHT22;26462;47.384;19.218;2022-08-19T12:44:54;35.10;45.90
40758;DHT22;26462;47.384;19.218;2022-08-19T12:47:22;35.10;46.00
40758;DHT22;26462;47.384;19.218;2022-08-19T12:49:49;35.00;46.00
40758;DHT22;26462;47.384;19.218;2022-08-19T12:52:22;35.10;46.50
40758;DHT22;26462;47.384;19.218;2022-08-19T12:54:50;35.00;46.10
40758;DHT22;26462;47.384;19.218;2022-08-19T12:57:22;35.10;46.30
40758;DHT22;26462;47.384;19.218;2022-08-19T12:59:58;35.20;45.60
40758;DHT22;26462;47.384;19.218;2022-08-19T13:02:26;35.20;45.90
40758;DHT22;26462;47.384;19.218;2022-08-19T13:04:53;35.40;46.40
40758;DHT22;26462;47.384;19.218;2022-08-19T13:07:20;35.40;46.40
40758;DHT22;26462;47.384;19.218;2022-08-19T13:09:51;35.40;45.60
40758;DHT22;26462;47.384;19.218;2022-08-19T13:12:18;35.40;46.20
40758;DHT22;26462;47.384;19.218;2022-08-19T13:14:50;35.40;45.50
40758;DHT22;26462;47.384;19.218;2022-08-19T13:17:19;35.30;45.60
40758;DHT22;26462;47.384;19.218;2022-08-19T13:19:46;35.40;46.10
40758;DHT22;26462;47.384;19.218;2022-08-19T13:22:14;35.40;46.00
40758;DHT22;26462;47.384;19.218;2022-08-19T13:24:41;35.40;45.20
40758;DHT22;26462;47.384;19.218;2022-08-19T13:27:13;35.30;45.20
40758;DHT22;26462;47.384;19.218;2022-08-19T13:29:41;35.10;45.70
40758;DHT22;26462;47.384;19.218;2022-08-19T13:32:26;35.00;45.20
40758;DHT22;26462;47.384;19.218;2022-08-19T13:35:15;35.00;46.30
40758;DHT22;26462;47.384;19.218;2022-08-19T13:37:43;35.20;46.10
40758;DHT22;26462;47.384;19.218;2022-08-19T13:40:15;35.10;45.70
40758;DHT22;26462;47.384;19.218;2022-08-19T13:42:46;35.10;46.30
40758;DHT22;26462;47.384;19.218;2022-08-19T13:45:15;34.90;46.60
40758;DHT22;26462;47.384;19.218;2022-08-19T13:47:48;34.90;45.80
40758;DHT22;26462;47.384;19.218;2022-08-19T13:50:19;35.00;46.40
40758;DHT22;26462;47.384;19.218;2022-08-19T13:52:47;35.00;45.10
40758;DHT22;26462;47.384;19.218;2022-08-19T13:55:15;34.80;46.20
40758;DHT22;26462;47.384;19.218;2022-08-19T13:57:59;34.70;46.10
40758;DHT22;26462;47.384;19.218;2022-08-19T14:00:31;34.60;48.60
40758;DHT22;26462;47.384;19.218;2022-08-19T14:02:59;34.50;49.40
40758;DHT22;26462;47.384;19.218;2022-08-19T14:05:27;34.40;49.90
40758;DHT22;26462;47.384;19.218;2022-08-19T14:07:55;34.30;50.40
40758;DHT22;26462;47.384;19.218;2022-08-19T14:10:23;34.50;50.60
40758;DHT22;26462;47.384;19.218;2022-08-19T14:12:55;34.50;50.90
40758;DHT22;26462;47.384;19.218;2022-08-19T14:15:25;34.40;50.80
40758;DHT22;26462;47.384;19.218;2022-08-19T14:17:53;34.20;50.50
40758;DHT22;26462;47.384;19.218;2022-08-19T14:20:21;34.20;51.00
40758;DHT22;26462;47.384;19.218;2022-08-19T14:22:52;34.10;51.50
40758;DHT22;26462;47.384;19.218;2022-08-19T14:25:23;33.70;52.10
40758;DHT22;26462;47.384;19.218;2022-08-19T14:27:51;33.50;52.90
40758;DHT22;26462;47.384;19.218;2022-08-19T14:30:22;33.30;53.10
40758;DHT22;26462;47.384;19.218;2022-08-19T14:32:50;33.00;53.50
40758;DHT22;26462;47.384;19.218;2022-08-19T14:35:18;33.20;53.70
40758;DHT22;26462;47.384;19.218;2022-08-19T14:37:45;33.10;53.70
40758;DHT22;26462;47.384;19.218;2022-08-19T14:40:16;33.20;53.40
40758;DHT22;26462;47.384;19.218;2022-08-19T14:42:47;33.20;53.70
40758;DHT22;26462;47.384;19.218;2022-08-19T14:45:15;33.00;53.10
40758;DHT22;26462;47.384;19.218;2022-08-19T14:47:42;32.90;52.90
40758;DHT22;26462;47.384;19.218;2022-08-19T14:50:18;32.80;52.70
40758;DHT22;26462;47.384;19.218;2022-08-19T14:52:48;32.70;53.60
40758;DHT22;26462;47.384;19.218;2022-08-19T14:55:17;32.60;53.40
40758;DHT22;26462;47.384;19.218;2022-08-19T14:57:44;32.40;52.90
40758;DHT22;26462;47.384;19.218;2022-08-19T15:00:12;32.20;53.60
40758;DHT22;26462;47.384;19.218;2022-08-19T15:02:43;32.10;53.20
40758;DHT22;26462;47.384;19.218;2022-08-19T15:05:13;32.10;51.20
40758;DHT22;26462;47.384;19.218;2022-08-19T15:07:41;32.00;50.70
40758;DHT22;26462;47.384;19.218;2022-08-19T15:10:10;31.90;49.10
40758;DHT22;26462;47.384;19.218;2022-08-19T15:12:39;31.90;49.00
40758;DHT22;26462;47.384;19.218;2022-08-19T15:15:12;31.80;48.60
40758;DHT22;26462;47.384;19.218;2022-08-19T15:17:44;31.70;48.10
40758;DHT22;26462;47.384;19.218;2022-08-19T15:20:16;31.60;48.10
40758;DHT22;26462;47.384;19.218;2022-08-19T15:22:44;31.60;48.20
40758;DHT22;26462;47.384;19.218;2022-08-19T15:25:14;31.70;48.10
40758;DHT22;26462;47.384;19.218;2022-08-19T15:27:41;31.70;48.20
40758;DHT22;26462;47.384;19.218;2022-08-19T15:30:11;31.60;48.30
40758;DHT22;26462;47.384;19.218;2022-08-19T15:32:38;31.60;48.80
40758;DHT22;26462;47.384;19.218;2022-08-19T15:35:06;31.50;48.50
40758;DHT22;26462;47.384;19.218;2022-08-19T15:37:35;31.50;48.90
40758;DHT22;26462;47.384;19.218;2022-08-19T15:40:05;31.50;48.70
40758;DHT22;26462;47.384;19.218;2022-08-19T15:42:36;31.40;48.90
40758;DHT22;26462;47.384;19.218;2022-08-19T15:45:05;31.30;48.60